Great Valley, New York
Current Conditions -  °F | °C
As of 5:35 PM on Friday 19 Dec 2014 (Local Time) from KOLE Reporting Station
Overcast Overcast  
Wind Chill: 21°   Ceiling: 800
Heat Index: 21°   Visibility: 10mi
Dew Point: 21°   Wind: 3mph
Humidity: 100%   Direction: 290°WNW
Pressure: 30.13"   Gusts: NA
Location:  42.21°N, 78.64°W
Report Text: KOLE 192235Z AUTO 29003KT 10SM OVC008 M06/M06 A3013 RMK AO2
Loading
Personal Weather Stations






























Interactive Weather Map New forecast layout! Learn more

10-Day Weather Forecast

Advertisements
Track Severe Weather on mobile